Aegean Pride — ELXK8 — position and weather

sailwx.info

Track history (hours):
 
Tides and Currents Weather Stations Pressure Air Temp Water Temp Dewpoint Dewpoint Depression Visibility Wind Speed Wind Dir Waves Ship Positions

Aegean Pride

Last reported at 2015-May-27 00:22 UTC. Time now 2015-May-29 04:16 UTC.
Position N 30°37' E 032°20'.

; draft 13.7 m.

Type: Tanker. MMSI: 636011186.

Date/timePositionNaut miles runAvg speedWind from/ knotsBaromVisibWave heightAir tempDewpointWater temp
2015-May-27 00:22N 30°37' E 032°20'15 8.1
2015-May-26 22:32N 30°52' E 032°19'9 9.2
2015-May-26 21:33N 31°01' E 032°19'9 9.1
2015-May-26 20:34N 31°10' E 032°20'6 6.4
2015-May-26 19:33N 31°17' E 032°22'9 9.4
2015-May-26 18:33N 31°26' E 032°24'4 4.1
2015-May-26 17:33N 31°27' E 032°20'1 0.7
2015-May-26 16:31N 31°27' E 032°19'0 0.0
2015-May-26 15:31N 31°27' E 032°19'0 0.0
2015-May-26 14:25N 31°27' E 032°19'0 0.0
2015-May-26 13:31N 31°27' E 032°19'0 0.0
2015-May-26 12:31N 31°27' E 032°19'0 0.0
2015-May-26 11:31N 31°27' E 032°19'0 0.0
2015-May-26 10:31N 31°27' E 032°19'0 0.1
2015-May-26 09:31N 31°27' E 032°19'0 0.1
2015-May-26 08:31N 31°27' E 032°19'0 0.0
2015-May-26 07:19N 31°27' E 032°19'0 0.1
2015-May-26 06:31N 31°27' E 032°19'0 0.0
2015-May-26 05:22N 31°27' E 032°19'0 0.0
2015-May-26 04:28N 31°27' E 032°19'0 0.0
2015-May-26 03:31N 31°27' E 032°19'0 0.0
2015-May-26 02:31N 31°27' E 032°19'0 0.0
2015-May-26 01:31N 31°27' E 032°19'0 0.0
2015-May-26 00:31N 31°27' E 032°19'0 0.0
2015-May-25 23:31N 31°27' E 032°19'0 0.0
2015-May-25 22:31N 31°27' E 032°19'0 0.0
2015-May-25 21:31N 31°27' E 032°19'0 0.0
2015-May-25 20:16N 31°27' E 032°19'0 0.0
2015-May-25 19:28N 31°27' E 032°19'0 0.0
2015-May-25 18:28N 31°27' E 032°19'0 0.0
2015-May-25 17:28N 31°27' E 032°19'0 0.0
2015-May-25 16:31N 31°27' E 032°19'0 0.0
2015-May-25 15:31N 31°27' E 032°19'0 0.0
2015-May-25 14:28N 31°27' E 032°19'0 0.0
2015-May-25 13:25N 31°27' E 032°19'0 0.0
2015-May-25 12:25N 31°27' E 032°19'0 0.0
2015-May-25 11:19N 31°27' E 032°19'0 0.0
2015-May-25 10:28N 31°27' E 032°19'0 0.0
2015-May-25 09:31N 31°27' E 032°19'0 0.0
2015-May-25 08:31N 31°27' E 032°19'0 0.1
2015-May-25 07:28N 31°27' E 032°19'0 0.1
2015-May-25 05:33N 31°27' E 032°19'10 7.3
2015-May-25 04:11N 31°34' E 032°10'811.4
2015-May-25 03:31N 31°39' E 032°04'1111.4
2015-May-25 02:33N 31°47' E 031°55'1211.6
2015-May-25 01:33N 31°55' E 031°45'3511.6
2015-May-24 22:33N 32°21' E 031°17'1212.1
2015-May-24 21:33N 32°30' E 031°08'1311.7
2015-May-24 20:29N 32°39' E 030°58'2711.4
2015-May-24 18:04N 32°59' E 030°36'1111.5
2015-May-24 17:07N 33°07' E 030°27'8812.6
2015-May-24 10:07N 34°12' E 029°16'12111.4
2015-May-23 23:33N 35°42' E 027°37'1211.7
2015-May-23 22:33N 35°50' E 027°27'1111.4
2015-May-23 21:33N 35°59' E 027°18'1211.7
2015-May-23 20:33N 36°07' E 027°08'1611.5
2015-May-23 19:12N 36°19' E 026°55'711.6
2015-May-23 18:33N 36°24' E 026°49'1211.4
2015-May-23 17:33N 36°33' E 026°39'1211.7
2015-May-23 16:33N 36°41' E 026°29'1311.6
2015-May-23 15:26N 36°51' E 026°18'1011.3
2015-May-23 14:32N 36°58' E 026°10'1111.3
2015-May-23 13:33N 37°06' E 025°59'1111.1
2015-May-23 12:33N 37°11' E 025°47'1111.3
2015-May-23 11:33N 37°15' E 025°34'1111.5
2015-May-23 10:33N 37°19' E 025°20'1111.3
2015-May-23 09:33N 37°23' E 025°07'6 6.0
2015-May-23 08:31N 37°25' E 024°59'0 0.0
2015-May-23 07:31N 37°25' E 024°59'0 0.0
2015-May-23 06:31N 37°25' E 024°59'0 0.0
2015-May-23 05:33N 37°25' E 024°59'1 1.3
2015-May-23 04:33N 37°25' E 025°01'10 9.8
2015-May-23 03:33N 37°29' E 025°12'1110.7
2015-May-23 02:33N 37°38' E 025°20'1212.0
2015-May-23 01:33N 37°50' E 025°21'  
2015-May-20 09:11N 42°18' E 033°18'3212.0
2015-May-20 06:31N 42°18' E 034°01'1212.1
2015-May-20 05:33N 42°19' E 034°17'1212.3
2015-May-20 04:33N 42°19' E 034°33'1312.5
2015-May-20 03:33N 42°19' E 034°50'1312.5
2015-May-20 02:32N 42°18' E 035°07'2512.4
2015-May-20 00:33N 42°15' E 035°40'1512.5
2015-May-19 23:19N 42°13' E 036°01'912.5
2015-May-19 22:33N 42°12' E 036°14'2912.4
2015-May-19 20:12N 42°08' E 036°53'812.4
2015-May-19 19:33N 42°07' E 037°03'4212.4
2015-May-19 16:13N 42°02' E 037°59'812.8
2015-May-19 15:33N 42°01' E 038°10'1312.6
2015-May-19 14:33N 41°59' E 038°27'1312.5
2015-May-19 13:33N 41°58' E 038°43'1212.4
2015-May-19 12:33N 41°56' E 039°00'1212.0
2015-May-19 11:33N 41°55' E 039°16'1211.6
2015-May-19 10:33N 41°53' E 039°32'1211.5
2015-May-19 09:33N 41°52' E 039°47'85 4.9
2015-May-18 16:20N 41°39' E 041°39'  
Track history (hours):
 
Tides and Currents Weather Stations Pressure Air Temp Water Temp Dewpoint Dewpoint Depression Visibility Wind Speed Wind Dir Waves Ship Positions

Aegean Pride

Last reported at 2015-May-27 00:22 UTC. Time now 2015-May-29 04:16 UTC.
Position N 30°37' E 032°20'.

; draft 13.7 m.

Type: Tanker. MMSI: 636011186.

Date/timePositionNaut miles runAvg speedWind from/ knotsBaromVisibWave heightAir tempDewpointWater temp
2015-May-27 00:22N 30°37' E 032°20'15 8.1
2015-May-26 22:32N 30°52' E 032°19'9 9.2
2015-May-26 21:33N 31°01' E 032°19'9 9.1
2015-May-26 20:34N 31°10' E 032°20'6 6.4
2015-May-26 19:33N 31°17' E 032°22'9 9.4
2015-May-26 18:33N 31°26' E 032°24'4 4.1
2015-May-26 17:33N 31°27' E 032°20'1 0.7
2015-May-26 16:31N 31°27' E 032°19'0 0.0
2015-May-26 15:31N 31°27' E 032°19'0 0.0
2015-May-26 14:25N 31°27' E 032°19'0 0.0
2015-May-26 13:31N 31°27' E 032°19'0 0.0
2015-May-26 12:31N 31°27' E 032°19'0 0.0
2015-May-26 11:31N 31°27' E 032°19'0 0.0
2015-May-26 10:31N 31°27' E 032°19'0 0.1
2015-May-26 09:31N 31°27' E 032°19'0 0.1
2015-May-26 08:31N 31°27' E 032°19'0 0.0
2015-May-26 07:19N 31°27' E 032°19'0 0.1
2015-May-26 06:31N 31°27' E 032°19'0 0.0
2015-May-26 05:22N 31°27' E 032°19'0 0.0
2015-May-26 04:28N 31°27' E 032°19'0 0.0
2015-May-26 03:31N 31°27' E 032°19'0 0.0
2015-May-26 02:31N 31°27' E 032°19'0 0.0
2015-May-26 01:31N 31°27' E 032°19'0 0.0
2015-May-26 00:31N 31°27' E 032°19'0 0.0
2015-May-25 23:31N 31°27' E 032°19'0 0.0
2015-May-25 22:31N 31°27' E 032°19'0 0.0
2015-May-25 21:31N 31°27' E 032°19'0 0.0
2015-May-25 20:16N 31°27' E 032°19'0 0.0
2015-May-25 19:28N 31°27' E 032°19'0 0.0
2015-May-25 18:28N 31°27' E 032°19'0 0.0
2015-May-25 17:28N 31°27' E 032°19'0 0.0
2015-May-25 16:31N 31°27' E 032°19'0 0.0
2015-May-25 15:31N 31°27' E 032°19'0 0.0
2015-May-25 14:28N 31°27' E 032°19'0 0.0
2015-May-25 13:25N 31°27' E 032°19'0 0.0
2015-May-25 12:25N 31°27' E 032°19'0 0.0
2015-May-25 11:19N 31°27' E 032°19'0 0.0
2015-May-25 10:28N 31°27' E 032°19'0 0.0
2015-May-25 09:31N 31°27' E 032°19'0 0.0
2015-May-25 08:31N 31°27' E 032°19'0 0.1
2015-May-25 07:28N 31°27' E 032°19'0 0.1
2015-May-25 05:33N 31°27' E 032°19'10 7.3
2015-May-25 04:11N 31°34' E 032°10'811.4
2015-May-25 03:31N 31°39' E 032°04'1111.4
2015-May-25 02:33N 31°47' E 031°55'1211.6
2015-May-25 01:33N 31°55' E 031°45'3511.6
2015-May-24 22:33N 32°21' E 031°17'1212.1
2015-May-24 21:33N 32°30' E 031°08'1311.7
2015-May-24 20:29N 32°39' E 030°58'2711.4
2015-May-24 18:04N 32°59' E 030°36'1111.5
2015-May-24 17:07N 33°07' E 030°27'8812.6
2015-May-24 10:07N 34°12' E 029°16'12111.4
2015-May-23 23:33N 35°42' E 027°37'1211.7
2015-May-23 22:33N 35°50' E 027°27'1111.4
2015-May-23 21:33N 35°59' E 027°18'1211.7
2015-May-23 20:33N 36°07' E 027°08'1611.5
2015-May-23 19:12N 36°19' E 026°55'711.6
2015-May-23 18:33N 36°24' E 026°49'1211.4
2015-May-23 17:33N 36°33' E 026°39'1211.7
2015-May-23 16:33N 36°41' E 026°29'1311.6
2015-May-23 15:26N 36°51' E 026°18'1011.3
2015-May-23 14:32N 36°58' E 026°10'1111.3
2015-May-23 13:33N 37°06' E 025°59'1111.1
2015-May-23 12:33N 37°11' E 025°47'1111.3
2015-May-23 11:33N 37°15' E 025°34'1111.5
2015-May-23 10:33N 37°19' E 025°20'1111.3
2015-May-23 09:33N 37°23' E 025°07'6 6.0
2015-May-23 08:31N 37°25' E 024°59'0 0.0
2015-May-23 07:31N 37°25' E 024°59'0 0.0
2015-May-23 06:31N 37°25' E 024°59'0 0.0
2015-May-23 05:33N 37°25' E 024°59'1 1.3
2015-May-23 04:33N 37°25' E 025°01'10 9.8
2015-May-23 03:33N 37°29' E 025°12'1110.7
2015-May-23 02:33N 37°38' E 025°20'1212.0
2015-May-23 01:33N 37°50' E 025°21'  
2015-May-20 09:11N 42°18' E 033°18'3212.0
2015-May-20 06:31N 42°18' E 034°01'1212.1
2015-May-20 05:33N 42°19' E 034°17'1212.3
2015-May-20 04:33N 42°19' E 034°33'1312.5
2015-May-20 03:33N 42°19' E 034°50'1312.5
2015-May-20 02:32N 42°18' E 035°07'2512.4
2015-May-20 00:33N 42°15' E 035°40'1512.5
2015-May-19 23:19N 42°13' E 036°01'912.5
2015-May-19 22:33N 42°12' E 036°14'2912.4
2015-May-19 20:12N 42°08' E 036°53'812.4
2015-May-19 19:33N 42°07' E 037°03'4212.4
2015-May-19 16:13N 42°02' E 037°59'812.8
2015-May-19 15:33N 42°01' E 038°10'1312.6
2015-May-19 14:33N 41°59' E 038°27'1312.5
2015-May-19 13:33N 41°58' E 038°43'1212.4
2015-May-19 12:33N 41°56' E 039°00'1212.0
2015-May-19 11:33N 41°55' E 039°16'1211.6
2015-May-19 10:33N 41°53' E 039°32'1211.5
2015-May-19 09:33N 41°52' E 039°47'85 4.9
2015-May-18 16:20N 41°39' E 041°39'  

Dump ship's entire track history